Ncc Najd — HZAK — position and weather

sailwx.info

Track history (hours):
 
Tides and Currents Weather Stations Pressure Air Temp Water Temp Dewpoint Dewpoint Depression Visibility Wind Speed Wind Dir Waves Ship Positions

Ncc Najd

Last reported at 2016-Sep-18 10:33 UTC. Time now 2016-Sep-28 00:05 UTC.
Position N 31°29' E 121°26'.
Warning: this ship's position is 9 days out of date.

Length 183 m; draft 8 m.

Type: Tanker. MMSI: 403579000.

Date/timePositionNaut miles runAvg speedWind from/ knotsBaromVisibWave heightAir tempDewpointWater temp
2016-Sep-18 10:33N 31°29' E 121°26'7 6.7
2016-Sep-18 09:31N 31°33' E 121°20'23 3.3
2016-Sep-18 02:33N 31°47' E 120°58'29 2.2
2016-Sep-17 13:28N 31°60' E 120°27'0 0.0
2016-Sep-17 12:23N 31°60' E 120°27'0 0.0
2016-Sep-17 10:22N 31°60' E 120°27'0 0.0
2016-Sep-17 09:29N 31°60' E 120°27'0 0.0
2016-Sep-17 08:23N 31°60' E 120°27'35 0.7
2016-Sep-15 04:33N 31°45' E 121°05'1414.1
2016-Sep-15 03:33N 31°36' E 121°17'1 0.1
2016-Sep-14 17:12N 31°35' E 121°17'0 0.0
2016-Sep-14 16:24N 31°35' E 121°17'0 0.0
2016-Sep-14 06:03N 31°35' E 121°17'19 7.5
2016-Sep-14 03:33N 31°24' E 121°34'  
2016-Sep-11 14:27N 22°14' E 119°54'1815.6
2016-Sep-11 13:20N 21°56' E 119°53'  
Track history (hours):
 
Tides and Currents Weather Stations Pressure Air Temp Water Temp Dewpoint Dewpoint Depression Visibility Wind Speed Wind Dir Waves Ship Positions

Ncc Najd

Last reported at 2016-Sep-18 10:33 UTC. Time now 2016-Sep-28 00:05 UTC.
Position N 31°29' E 121°26'.
Warning: this ship's position is 9 days out of date.

Length 183 m; draft 8 m.

Type: Tanker. MMSI: 403579000.

Date/timePositionNaut miles runAvg speedWind from/ knotsBaromVisibWave heightAir tempDewpointWater temp
2016-Sep-18 10:33N 31°29' E 121°26'7 6.7
2016-Sep-18 09:31N 31°33' E 121°20'23 3.3
2016-Sep-18 02:33N 31°47' E 120°58'29 2.2
2016-Sep-17 13:28N 31°60' E 120°27'0 0.0
2016-Sep-17 12:23N 31°60' E 120°27'0 0.0
2016-Sep-17 10:22N 31°60' E 120°27'0 0.0
2016-Sep-17 09:29N 31°60' E 120°27'0 0.0
2016-Sep-17 08:23N 31°60' E 120°27'35 0.7
2016-Sep-15 04:33N 31°45' E 121°05'1414.1
2016-Sep-15 03:33N 31°36' E 121°17'1 0.1
2016-Sep-14 17:12N 31°35' E 121°17'0 0.0
2016-Sep-14 16:24N 31°35' E 121°17'0 0.0
2016-Sep-14 06:03N 31°35' E 121°17'19 7.5
2016-Sep-14 03:33N 31°24' E 121°34'  
2016-Sep-11 14:27N 22°14' E 119°54'1815.6
2016-Sep-11 13:20N 21°56' E 119°53'  

Dump ship's entire track history